sensor_id;sensor_type;location;lat;lon;timestamp;pressure;altitude;pressure_sealevel;temperature;humidity
42601;BME280;28229;48.856;9.088;2023-03-04T00:01:50;98484.25;;;-0.41;82.24
42601;BME280;28229;48.856;9.088;2023-03-04T00:04:16;98482.72;;;-0.43;81.94
42601;BME280;28229;48.856;9.088;2023-03-04T00:06:43;98487.34;;;-0.47;82.15
42601;BME280;28229;48.856;9.088;2023-03-04T00:09:09;98482.19;;;-0.47;81.89
42601;BME280;28229;48.856;9.088;2023-03-04T00:11:35;98482.31;;;-0.58;82.23
42601;BME280;28229;48.856;9.088;2023-03-04T00:14:01;98487.59;;;-0.60;82.49
42601;BME280;28229;48.856;9.088;2023-03-04T00:16:27;98496.19;;;-0.49;82.02
42601;BME280;28229;48.856;9.088;2023-03-04T00:18:55;98485.16;;;-0.61;82.13
42601;BME280;28229;48.856;9.088;2023-03-04T00:21:22;98485.97;;;-0.61;82.16
42601;BME280;28229;48.856;9.088;2023-03-04T00:23:48;98485.00;;;-0.69;82.09
42601;BME280;28229;48.856;9.088;2023-03-04T00:26:15;98487.31;;;-0.66;82.19
42601;BME280;28229;48.856;9.088;2023-03-04T00:28:43;98484.28;;;-0.71;82.45
42601;BME280;28229;48.856;9.088;2023-03-04T00:31:09;98486.19;;;-0.73;82.56
42601;BME280;28229;48.856;9.088;2023-03-04T00:33:36;98487.41;;;-0.78;82.80
42601;BME280;28229;48.856;9.088;2023-03-04T00:36:03;98487.13;;;-0.84;83.00
42601;BME280;28229;48.856;9.088;2023-03-04T00:38:29;98489.56;;;-0.83;84.11
42601;BME280;28229;48.856;9.088;2023-03-04T00:40:55;98491.78;;;-0.78;85.19
42601;BME280;28229;48.856;9.088;2023-03-04T00:43:22;98490.00;;;-0.78;86.09
42601;BME280;28229;48.856;9.088;2023-03-04T00:45:49;98489.06;;;-0.77;85.39
42601;BME280;28229;48.856;9.088;2023-03-04T00:48:15;98491.78;;;-0.78;84.34
42601;BME280;28229;48.856;9.088;2023-03-04T00:50:42;98493.69;;;-0.80;84.24
42601;BME280;28229;48.856;9.088;2023-03-04T00:53:09;98492.03;;;-0.81;84.17
42601;BME280;28229;48.856;9.088;2023-03-04T00:55:35;98486.84;;;-0.91;84.49
42601;BME280;28229;48.856;9.088;2023-03-04T00:58:02;98486.41;;;-0.96;84.40
42601;BME280;28229;48.856;9.088;2023-03-04T01:00:28;98486.53;;;-0.98;84.28
42601;BME280;28229;48.856;9.088;2023-03-04T01:02:54;98485.69;;;-0.98;84.09
42601;BME280;28229;48.856;9.088;2023-03-04T01:05:21;98492.22;;;-1.04;84.04
42601;BME280;28229;48.856;9.088;2023-03-04T01:07:47;98482.44;;;-1.00;84.21
42601;BME280;28229;48.856;9.088;2023-03-04T01:10:14;98482.84;;;-1.05;83.94
42601;BME280;28229;48.856;9.088;2023-03-04T01:12:41;98483.22;;;-1.09;84.48
42601;BME280;28229;48.856;9.088;2023-03-04T01:15:09;98472.22;;;-1.11;84.26
42601;BME280;28229;48.856;9.088;2023-03-04T01:17:36;98479.03;;;-1.10;84.50
42601;BME280;28229;48.856;9.088;2023-03-04T01:20:04;98484.44;;;-1.13;84.66
42601;BME280;28229;48.856;9.088;2023-03-04T01:22:31;98473.84;;;-1.10;84.44
42601;BME280;28229;48.856;9.088;2023-03-04T01:24:57;98473.13;;;-1.12;84.38
42601;BME280;28229;48.856;9.088;2023-03-04T01:27:25;98473.41;;;-1.16;84.36
42601;BME280;28229;48.856;9.088;2023-03-04T01:29:51;98474.22;;;-1.15;83.88
42601;BME280;28229;48.856;9.088;2023-03-04T01:32:17;98475.81;;;-1.24;84.33
42601;BME280;28229;48.856;9.088;2023-03-04T01:34:43;98473.03;;;-1.32;84.74
42601;BME280;28229;48.856;9.088;2023-03-04T01:37:10;98476.03;;;-1.37;84.69
42601;BME280;28229;48.856;9.088;2023-03-04T01:39:36;98467.31;;;-1.36;84.91
42601;BME280;28229;48.856;9.088;2023-03-04T01:42:02;98465.84;;;-1.38;85.23
42601;BME280;28229;48.856;9.088;2023-03-04T01:44:28;98470.31;;;-1.40;85.03
42601;BME280;28229;48.856;9.088;2023-03-04T01:46:55;98477.09;;;-1.39;85.26
42601;BME280;28229;48.856;9.088;2023-03-04T01:49:24;98470.56;;;-1.43;85.42
42601;BME280;28229;48.856;9.088;2023-03-04T01:51:52;98467.53;;;-1.48;85.45
42601;BME280;28229;48.856;9.088;2023-03-04T01:54:21;98469.19;;;-1.47;85.66
42601;BME280;28229;48.856;9.088;2023-03-04T01:56:49;98472.69;;;-1.48;85.71
42601;BME280;28229;48.856;9.088;2023-03-04T01:59:20;98471.56;;;-1.56;85.98
42601;BME280;28229;48.856;9.088;2023-03-04T02:01:52;98473.72;;;-1.61;86.05
42601;BME280;28229;48.856;9.088;2023-03-04T02:04:21;98466.94;;;-1.62;86.46
42601;BME280;28229;48.856;9.088;2023-03-04T02:06:49;98466.25;;;-1.64;86.92
42601;BME280;28229;48.856;9.088;2023-03-04T02:09:16;98459.56;;;-1.66;87.13
42601;BME280;28229;48.856;9.088;2023-03-04T02:11:45;98464.59;;;-1.65;88.17
42601;BME280;28229;48.856;9.088;2023-03-04T02:14:15;98460.13;;;-1.63;89.04
42601;BME280;28229;48.856;9.088;2023-03-04T02:16:42;98459.44;;;-1.65;89.56
42601;BME280;28229;48.856;9.088;2023-03-04T02:21:52;98463.91;;;-1.67;90.27
42601;BME280;28229;48.856;9.088;2023-03-04T02:24:28;98465.13;;;-1.71;90.35
42601;BME280;28229;48.856;9.088;2023-03-04T02:26:56;98457.78;;;-1.66;90.58
42601;BME280;28229;48.856;9.088;2023-03-04T02:29:22;98451.94;;;-1.68;90.98
42601;BME280;28229;48.856;9.088;2023-03-04T02:31:50;98455.47;;;-1.69;91.35
42601;BME280;28229;48.856;9.088;2023-03-04T02:34:20;98455.47;;;-1.69;91.43
42601;BME280;28229;48.856;9.088;2023-03-04T02:36:48;98456.59;;;-1.62;91.44
42601;BME280;28229;48.856;9.088;2023-03-04T02:41:45;98461.78;;;-1.62;90.63
42601;BME280;28229;48.856;9.088;2023-03-04T02:44:22;98462.69;;;-1.63;90.94
42601;BME280;28229;48.856;9.088;2023-03-04T02:46:51;98460.38;;;-1.66;91.23
42601;BME280;28229;48.856;9.088;2023-03-04T02:49:18;98466.03;;;-1.72;91.46
42601;BME280;28229;48.856;9.088;2023-03-04T02:51:45;98462.78;;;-1.74;91.18
42601;BME280;28229;48.856;9.088;2023-03-04T02:54:20;98463.72;;;-1.75;91.04
42601;BME280;28229;48.856;9.088;2023-03-04T02:56:52;98462.22;;;-1.78;91.64
42601;BME280;28229;48.856;9.088;2023-03-04T02:59:21;98467.13;;;-1.75;92.16
42601;BME280;28229;48.856;9.088;2023-03-04T03:01:49;98462.44;;;-1.81;92.60
42601;BME280;28229;48.856;9.088;2023-03-04T03:04:15;98464.66;;;-1.76;92.55
42601;BME280;28229;48.856;9.088;2023-03-04T03:06:43;98457.84;;;-1.77;92.42
42601;BME280;28229;48.856;9.088;2023-03-04T03:09:10;98462.78;;;-1.74;92.35
42601;BME280;28229;48.856;9.088;2023-03-04T03:11:39;98466.56;;;-1.78;92.87
42601;BME280;28229;48.856;9.088;2023-03-04T03:14:06;98465.53;;;-1.87;93.10
42601;BME280;28229;48.856;9.088;2023-03-04T03:16:32;98462.34;;;-1.79;92.96
42601;BME280;28229;48.856;9.088;2023-03-04T03:18:59;98463.66;;;-1.85;92.80
42601;BME280;28229;48.856;9.088;2023-03-04T03:21:25;98468.00;;;-1.85;93.17
42601;BME280;28229;48.856;9.088;2023-03-04T03:23:52;98459.94;;;-1.92;93.30
42601;BME280;28229;48.856;9.088;2023-03-04T03:26:18;98458.28;;;-1.93;93.37
42601;BME280;28229;48.856;9.088;2023-03-04T03:28:45;98459.63;;;-1.99;92.40
42601;BME280;28229;48.856;9.088;2023-03-04T03:31:11;98460.38;;;-2.08;92.25
42601;BME280;28229;48.856;9.088;2023-03-04T03:33:37;98458.03;;;-2.11;92.42
42601;BME280;28229;48.856;9.088;2023-03-04T03:36:04;98450.97;;;-2.09;92.78
42601;BME280;28229;48.856;9.088;2023-03-04T03:38:32;98450.50;;;-2.03;93.06
42601;BME280;28229;48.856;9.088;2023-03-04T03:40:58;98454.53;;;-2.10;93.74
42601;BME280;28229;48.856;9.088;2023-03-04T03:43:24;98457.91;;;-2.09;93.88
42601;BME280;28229;48.856;9.088;2023-03-04T03:45:50;98453.56;;;-2.09;94.17
42601;BME280;28229;48.856;9.088;2023-03-04T03:48:17;98454.53;;;-2.10;94.29
42601;BME280;28229;48.856;9.088;2023-03-04T03:50:43;98453.25;;;-2.16;94.13
42601;BME280;28229;48.856;9.088;2023-03-04T03:53:10;98460.59;;;-2.11;93.96
42601;BME280;28229;48.856;9.088;2023-03-04T03:55:37;98456.53;;;-2.14;94.07
42601;BME280;28229;48.856;9.088;2023-03-04T03:58:04;98457.09;;;-2.10;94.13
42601;BME280;28229;48.856;9.088;2023-03-04T04:00:30;98455.22;;;-2.19;94.52
42601;BME280;28229;48.856;9.088;2023-03-04T04:03:10;98456.75;;;-2.17;94.32
42601;BME280;28229;48.856;9.088;2023-03-04T04:05:39;98462.50;;;-2.13;94.06
42601;BME280;28229;48.856;9.088;2023-03-04T04:08:05;98454.31;;;-2.18;93.69
42601;BME280;28229;48.856;9.088;2023-03-04T04:10:31;98460.66;;;-2.22;93.83
42601;BME280;28229;48.856;9.088;2023-03-04T04:12:57;98459.00;;;-2.23;93.46
42601;BME280;28229;48.856;9.088;2023-03-04T04:15:24;98465.25;;;-2.26;93.19
42601;BME280;28229;48.856;9.088;2023-03-04T04:17:50;98460.22;;;-2.27;92.88
42601;BME280;28229;48.856;9.088;2023-03-04T04:20:16;98465.84;;;-2.34;92.68
42601;BME280;28229;48.856;9.088;2023-03-04T04:22:42;98461.75;;;-2.36;92.71
42601;BME280;28229;48.856;9.088;2023-03-04T04:25:08;98460.94;;;-2.37;92.56
42601;BME280;28229;48.856;9.088;2023-03-04T04:27:35;98462.56;;;-2.36;92.12
42601;BME280;28229;48.856;9.088;2023-03-04T04:30:02;98461.63;;;-2.35;91.54
42601;BME280;28229;48.856;9.088;2023-03-04T04:32:29;98463.06;;;-2.42;91.82
42601;BME280;28229;48.856;9.088;2023-03-04T04:34:55;98465.41;;;-2.50;91.88
42601;BME280;28229;48.856;9.088;2023-03-04T04:37:21;98465.66;;;-2.53;92.00
42601;BME280;28229;48.856;9.088;2023-03-04T04:39:47;98472.81;;;-2.57;91.76
42601;BME280;28229;48.856;9.088;2023-03-04T04:42:13;98471.78;;;-2.65;91.45
42601;BME280;28229;48.856;9.088;2023-03-04T04:44:40;98470.16;;;-2.66;91.69
42601;BME280;28229;48.856;9.088;2023-03-04T04:47:06;98471.66;;;-2.64;91.24
42601;BME280;28229;48.856;9.088;2023-03-04T04:49:32;98469.34;;;-2.67;90.97
42601;BME280;28229;48.856;9.088;2023-03-04T04:51:59;98474.47;;;-2.67;92.23
42601;BME280;28229;48.856;9.088;2023-03-04T04:54:25;98460.56;;;-2.76;93.29
42601;BME280;28229;48.856;9.088;2023-03-04T04:56:51;98459.97;;;-2.79;93.14
42601;BME280;28229;48.856;9.088;2023-03-04T04:59:17;98468.53;;;-2.79;93.29
42601;BME280;28229;48.856;9.088;2023-03-04T05:01:44;98473.31;;;-2.74;93.57
42601;BME280;28229;48.856;9.088;2023-03-04T05:04:10;98466.19;;;-2.82;94.21
42601;BME280;28229;48.856;9.088;2023-03-04T05:06:36;98477.44;;;-2.83;95.14
42601;BME280;28229;48.856;9.088;2023-03-04T05:09:02;98475.78;;;-2.84;94.70
42601;BME280;28229;48.856;9.088;2023-03-04T05:11:29;98476.75;;;-2.85;94.33
42601;BME280;28229;48.856;9.088;2023-03-04T05:13:55;98480.00;;;-2.83;94.08
42601;BME280;28229;48.856;9.088;2023-03-04T05:16:21;98478.34;;;-2.84;93.15
42601;BME280;28229;48.856;9.088;2023-03-04T05:18:47;98486.31;;;-2.87;93.39
42601;BME280;28229;48.856;9.088;2023-03-04T05:21:14;98492.06;;;-2.95;92.92
42601;BME280;28229;48.856;9.088;2023-03-04T05:23:42;98491.13;;;-2.94;92.67
42601;BME280;28229;48.856;9.088;2023-03-04T05:26:11;98489.84;;;-2.99;92.34
42601;BME280;28229;48.856;9.088;2023-03-04T05:28:38;98487.72;;;-2.94;91.73
42601;BME280;28229;48.856;9.088;2023-03-04T05:31:06;98485.50;;;-2.99;91.48
42601;BME280;28229;48.856;9.088;2023-03-04T05:33:32;98487.63;;;-3.04;91.59
42601;BME280;28229;48.856;9.088;2023-03-04T05:36:01;98489.59;;;-3.08;91.42
42601;BME280;28229;48.856;9.088;2023-03-04T05:38:27;98485.38;;;-3.09;91.47
42601;BME280;28229;48.856;9.088;2023-03-04T05:40:59;98486.91;;;-3.17;91.81
42601;BME280;28229;48.856;9.088;2023-03-04T05:43:26;98486.56;;;-3.13;91.57
42601;BME280;28229;48.856;9.088;2023-03-04T05:45:53;98485.72;;;-3.25;91.84
42601;BME280;28229;48.856;9.088;2023-03-04T05:48:20;98487.50;;;-3.36;91.80
42601;BME280;28229;48.856;9.088;2023-03-04T05:50:46;98490.97;;;-3.37;92.24
42601;BME280;28229;48.856;9.088;2023-03-04T05:53:12;98494.25;;;-3.35;93.35
42601;BME280;28229;48.856;9.088;2023-03-04T05:55:38;98496.81;;;-3.35;94.53
42601;BME280;28229;48.856;9.088;2023-03-04T05:58:04;98497.88;;;-3.38;94.93
42601;BME280;28229;48.856;9.088;2023-03-04T06:00:30;98493.78;;;-3.40;94.96
42601;BME280;28229;48.856;9.088;2023-03-04T06:02:57;98491.81;;;-3.37;94.94
42601;BME280;28229;48.856;9.088;2023-03-04T06:05:23;98499.41;;;-3.35;94.74
42601;BME280;28229;48.856;9.088;2023-03-04T06:07:49;98501.50;;;-3.40;95.05
42601;BME280;28229;48.856;9.088;2023-03-04T06:10:16;98502.56;;;-3.43;95.64
42601;BME280;28229;48.856;9.088;2023-03-04T06:12:43;98506.63;;;-3.40;95.51
42601;BME280;28229;48.856;9.088;2023-03-04T06:15:10;98503.38;;;-3.42;95.42
42601;BME280;28229;48.856;9.088;2023-03-04T06:17:37;98503.38;;;-3.42;95.43
42601;BME280;28229;48.856;9.088;2023-03-04T06:20:04;98516.13;;;-3.41;96.41
42601;BME280;28229;48.856;9.088;2023-03-04T06:22:32;98515.69;;;-3.35;96.71
42601;BME280;28229;48.856;9.088;2023-03-04T06:24:59;98520.72;;;-3.33;97.06
42601;BME280;28229;48.856;9.088;2023-03-04T06:27:26;98520.94;;;-3.25;96.58
42601;BME280;28229;48.856;9.088;2023-03-04T06:29:52;98522.34;;;-3.32;97.16
42601;BME280;28229;48.856;9.088;2023-03-04T06:32:18;98526.34;;;-2.83;100.00
42601;BME280;28229;48.856;9.088;2023-03-04T06:34:45;98529.38;;;-3.00;100.00
42601;BME280;28229;48.856;9.088;2023-03-04T06:37:11;98526.34;;;-3.06;100.00
42601;BME280;28229;48.856;9.088;2023-03-04T06:39:37;98529.50;;;-3.13;100.00
42601;BME280;28229;48.856;9.088;2023-03-04T06:42:03;98531.28;;;-3.02;100.00
42601;BME280;28229;48.856;9.088;2023-03-04T06:44:29;98541.78;;;-3.06;100.00
42601;BME280;28229;48.856;9.088;2023-03-04T06:46:56;98534.53;;;-3.00;100.00
42601;BME280;28229;48.856;9.088;2023-03-04T06:49:23;98543.78;;;-2.98;100.00
42601;BME280;28229;48.856;9.088;2023-03-04T06:51:49;98544.72;;;-2.88;100.00
42601;BME280;28229;48.856;9.088;2023-03-04T06:54:15;98546.25;;;-2.85;100.00
42601;BME280;28229;48.856;9.088;2023-03-04T06:56:41;98547.75;;;-2.82;100.00
42601;BME280;28229;48.856;9.088;2023-03-04T06:59:08;98546.94;;;-2.83;100.00
42601;BME280;28229;48.856;9.088;2023-03-04T07:01:34;98546.81;;;-2.70;100.00
42601;BME280;28229;48.856;9.088;2023-03-04T07:04:01;98549.06;;;-2.65;100.00
42601;BME280;28229;48.856;9.088;2023-03-04T07:06:27;98550.66;;;-2.53;100.00
42601;BME280;28229;48.856;9.088;2023-03-04T07:08:55;98553.81;;;-2.50;100.00
42601;BME280;28229;48.856;9.088;2023-03-04T07:11:22;98549.03;;;-2.43;100.00
42601;BME280;28229;48.856;9.088;2023-03-04T07:13:49;98551.59;;;-2.32;100.00
42601;BME280;28229;48.856;9.088;2023-03-04T07:16:19;98564.00;;;-2.25;100.00
42601;BME280;28229;48.856;9.088;2023-03-04T07:18:46;98564.22;;;-2.17;100.00
42601;BME280;28229;48.856;9.088;2023-03-04T07:21:18;98563.72;;;-2.11;100.00
42601;BME280;28229;48.856;9.088;2023-03-04T07:23:45;98564.19;;;-2.06;100.00
42601;BME280;28229;48.856;9.088;2023-03-04T07:26:11;98571.88;;;-1.95;100.00
42601;BME280;28229;48.856;9.088;2023-03-04T07:28:37;98571.28;;;-1.87;100.00
42601;BME280;28229;48.856;9.088;2023-03-04T07:31:08;98573.97;;;-1.88;100.00
42601;BME280;28229;48.856;9.088;2023-03-04T07:33:39;98575.81;;;-1.79;100.00
42601;BME280;28229;48.856;9.088;2023-03-04T07:36:05;98568.03;;;-1.68;100.00
42601;BME280;28229;48.856;9.088;2023-03-04T07:38:34;98581.25;;;-1.61;100.00
42601;BME280;28229;48.856;9.088;2023-03-04T07:41:00;98579.00;;;-1.55;100.00
42601;BME280;28229;48.856;9.088;2023-03-04T07:43:27;98576.03;;;-1.50;100.00
42601;BME280;28229;48.856;9.088;2023-03-04T07:46:01;98583.63;;;-1.37;100.00
42601;BME280;28229;48.856;9.088;2023-03-04T07:48:28;98586.91;;;-1.35;100.00
42601;BME280;28229;48.856;9.088;2023-03-04T07:51:16;98596.66;;;-1.39;100.00
42601;BME280;28229;48.856;9.088;2023-03-04T07:53:45;98594.25;;;-1.30;100.00
42601;BME280;28229;48.856;9.088;2023-03-04T07:56:15;98598.47;;;-1.29;100.00
42601;BME280;28229;48.856;9.088;2023-03-04T07:58:41;98596.91;;;-1.21;100.00
42601;BME280;28229;48.856;9.088;2023-03-04T08:01:11;98592.44;;;-1.19;100.00
42601;BME280;28229;48.856;9.088;2023-03-04T08:03:37;98589.56;;;-0.94;100.00
42601;BME280;28229;48.856;9.088;2023-03-04T08:06:08;98589.81;;;-0.77;100.00
42601;BME280;28229;48.856;9.088;2023-03-04T08:08:35;98592.16;;;-0.33;100.00
42601;BME280;28229;48.856;9.088;2023-03-04T08:11:06;98587.09;;;0.35;100.00
42601;BME280;28229;48.856;9.088;2023-03-04T08:13:33;98598.41;;;0.73;100.00
42601;BME280;28229;48.856;9.088;2023-03-04T08:16:00;98604.00;;;0.59;97.84
42601;BME280;28229;48.856;9.088;2023-03-04T08:18:27;98610.41;;;0.45;94.65
42601;BME280;28229;48.856;9.088;2023-03-04T08:20:53;98608.19;;;0.21;94.19
42601;BME280;28229;48.856;9.088;2023-03-04T08:23:19;98607.66;;;0.08;93.91
42601;BME280;28229;48.856;9.088;2023-03-04T08:25:46;98607.22;;;0.03;93.92
42601;BME280;28229;48.856;9.088;2023-03-04T08:28:13;98605.16;;;-0.04;93.71
42601;BME280;28229;48.856;9.088;2023-03-04T08:30:39;98610.56;;;-0.16;93.37
42601;BME280;28229;48.856;9.088;2023-03-04T08:33:06;98612.06;;;-0.24;94.44
42601;BME280;28229;48.856;9.088;2023-03-04T08:35:34;98613.56;;;-0.21;95.29
42601;BME280;28229;48.856;9.088;2023-03-04T08:38:01;98622.53;;;-0.25;94.79
42601;BME280;28229;48.856;9.088;2023-03-04T08:40:27;98618.75;;;-0.21;94.86
42601;BME280;28229;48.856;9.088;2023-03-04T08:42:53;98610.31;;;-0.23;94.59
42601;BME280;28229;48.856;9.088;2023-03-04T08:45:19;98614.25;;;-0.19;94.83
42601;BME280;28229;48.856;9.088;2023-03-04T08:47:46;98616.59;;;-0.16;94.62
42601;BME280;28229;48.856;9.088;2023-03-04T08:50:12;98620.28;;;-0.09;94.99
42601;BME280;28229;48.856;9.088;2023-03-04T08:52:38;98615.09;;;-0.09;94.98
42601;BME280;28229;48.856;9.088;2023-03-04T08:55:04;98616.09;;;0.00;95.21
42601;BME280;28229;48.856;9.088;2023-03-04T08:57:31;98604.38;;;0.06;94.05
42601;BME280;28229;48.856;9.088;2023-03-04T08:59:57;98611.72;;;0.10;94.15
42601;BME280;28229;48.856;9.088;2023-03-04T09:02:23;98617.19;;;0.17;94.08
42601;BME280;28229;48.856;9.088;2023-03-04T09:04:49;98619.09;;;0.25;93.65
42601;BME280;28229;48.856;9.088;2023-03-04T09:07:15;98626.19;;;0.23;93.16
42601;BME280;28229;48.856;9.088;2023-03-04T09:09:41;98621.25;;;0.19;92.45
42601;BME280;28229;48.856;9.088;2023-03-04T09:12:08;98627.41;;;0.28;93.04
42601;BME280;28229;48.856;9.088;2023-03-04T09:14:34;98619.38;;;0.31;92.73
42601;BME280;28229;48.856;9.088;2023-03-04T09:17:02;98614.78;;;0.45;91.86
42601;BME280;28229;48.856;9.088;2023-03-04T09:19:28;98616.00;;;0.50;91.27
42601;BME280;28229;48.856;9.088;2023-03-04T09:21:55;98618.56;;;0.60;90.29
42601;BME280;28229;48.856;9.088;2023-03-04T09:24:21;98618.84;;;0.57;88.63
42601;BME280;28229;48.856;9.088;2023-03-04T09:26:51;98621.97;;;0.51;89.10
42601;BME280;28229;48.856;9.088;2023-03-04T09:29:18;98613.00;;;0.65;89.04
42601;BME280;28229;48.856;9.088;2023-03-04T09:31:44;98615.56;;;0.74;88.82
42601;BME280;28229;48.856;9.088;2023-03-04T09:34:10;98616.38;;;0.85;88.58
42601;BME280;28229;48.856;9.088;2023-03-04T09:36:36;98613.66;;;0.86;87.72
42601;BME280;28229;48.856;9.088;2023-03-04T09:39:03;98615.53;;;0.94;86.86
42601;BME280;28229;48.856;9.088;2023-03-04T09:41:46;98612.00;;;0.95;84.86
42601;BME280;28229;48.856;9.088;2023-03-04T09:44:20;98616.38;;;0.94;85.06
42601;BME280;28229;48.856;9.088;2023-03-04T09:46:48;98605.03;;;1.05;85.86
42601;BME280;28229;48.856;9.088;2023-03-04T09:49:15;98603.53;;;1.12;84.64
42601;BME280;28229;48.856;9.088;2023-03-04T09:54:36;98609.19;;;1.36;84.61
42601;BME280;28229;48.856;9.088;2023-03-04T09:57:22;98610.38;;;1.41;83.61
42601;BME280;28229;48.856;9.088;2023-03-04T10:00:04;98608.56;;;1.51;82.91
42601;BME280;28229;48.856;9.088;2023-03-04T10:02:49;98612.06;;;1.60;81.67
42601;BME280;28229;48.856;9.088;2023-03-04T10:05:23;98610.72;;;1.66;80.37
42601;BME280;28229;48.856;9.088;2023-03-04T10:08:01;98611.19;;;1.79;81.79
42601;BME280;28229;48.856;9.088;2023-03-04T10:10:35;98611.44;;;1.86;79.54
42601;BME280;28229;48.856;9.088;2023-03-04T10:13:03;98610.03;;;1.92;77.43
42601;BME280;28229;48.856;9.088;2023-03-04T10:15:39;98614.06;;;2.04;78.60
42601;BME280;28229;48.856;9.088;2023-03-04T10:18:31;98612.50;;;2.11;76.52
42601;BME280;28229;48.856;9.088;2023-03-04T10:24:00;98597.34;;;2.06;75.47
42601;BME280;28229;48.856;9.088;2023-03-04T10:26:29;98604.06;;;2.09;75.35
42601;BME280;28229;48.856;9.088;2023-03-04T10:28:58;98603.06;;;2.10;75.47
42601;BME280;28229;48.856;9.088;2023-03-04T10:31:33;98602.25;;;2.09;75.24
42601;BME280;28229;48.856;9.088;2023-03-04T10:34:03;98593.28;;;2.04;74.89
42601;BME280;28229;48.856;9.088;2023-03-04T10:38:59;98596.56;;;2.06;74.91
42601;BME280;28229;48.856;9.088;2023-03-04T10:41:28;98591.34;;;2.06;74.42
42601;BME280;28229;48.856;9.088;2023-03-04T10:46:37;98591.06;;;2.09;73.70
42601;BME280;28229;48.856;9.088;2023-03-04T10:49:03;98594.06;;;2.14;74.58
42601;BME280;28229;48.856;9.088;2023-03-04T10:51:30;98598.47;;;2.04;74.40
42601;BME280;28229;48.856;9.088;2023-03-04T10:57:05;98589.00;;;2.13;74.08
42601;BME280;28229;48.856;9.088;2023-03-04T10:59:42;98580.97;;;2.06;73.27
42601;BME280;28229;48.856;9.088;2023-03-04T11:02:28;98585.28;;;2.15;73.38
42601;BME280;28229;48.856;9.088;2023-03-04T11:07:29;98573.94;;;2.16;72.83
42601;BME280;28229;48.856;9.088;2023-03-04T11:10:51;98572.97;;;2.17;73.11
42601;BME280;28229;48.856;9.088;2023-03-04T11:13:23;98571.03;;;2.01;73.27
42601;BME280;28229;48.856;9.088;2023-03-04T11:16:03;98572.38;;;2.05;73.35
42601;BME280;28229;48.856;9.088;2023-03-04T11:18:45;98565.84;;;2.01;73.64
42601;BME280;28229;48.856;9.088;2023-03-04T11:21:19;98573.72;;;2.09;73.57
42601;BME280;28229;48.856;9.088;2023-03-04T11:23:58;98574.47;;;2.02;73.00
42601;BME280;28229;48.856;9.088;2023-03-04T11:26:29;98562.16;;;2.04;73.33
42601;BME280;28229;48.856;9.088;2023-03-04T11:29:07;98567.84;;;2.07;73.91
42601;BME280;28229;48.856;9.088;2023-03-04T11:31:54;98564.50;;;2.15;73.52
42601;BME280;28229;48.856;9.088;2023-03-04T11:34:49;98562.94;;;2.04;73.60
42601;BME280;28229;48.856;9.088;2023-03-04T11:37:26;98561.75;;;1.99;73.62
42601;BME280;28229;48.856;9.088;2023-03-04T11:40:02;98559.31;;;1.97;74.55
42601;BME280;28229;48.856;9.088;2023-03-04T11:42:44;98561.16;;;2.05;73.03
42601;BME280;28229;48.856;9.088;2023-03-04T11:45:14;98558.28;;;2.08;73.10
42601;BME280;28229;48.856;9.088;2023-03-04T11:47:47;98556.66;;;2.07;72.26
42601;BME280;28229;48.856;9.088;2023-03-04T11:53:07;98554.88;;;2.07;72.28
42601;BME280;28229;48.856;9.088;2023-03-04T12:07:11;98544.94;;;2.03;72.62
42601;BME280;28229;48.856;9.088;2023-03-04T12:10:21;98526.09;;;2.01;72.68
42601;BME280;28229;48.856;9.088;2023-03-04T12:16:04;98527.78;;;1.92;73.36
42601;BME280;28229;48.856;9.088;2023-03-04T12:18:41;98519.88;;;1.94;73.38
42601;BME280;28229;48.856;9.088;2023-03-04T12:21:21;98522.47;;;1.94;73.61
42601;BME280;28229;48.856;9.088;2023-03-04T12:27:21;98512.53;;;1.89;74.16
42601;BME280;28229;48.856;9.088;2023-03-04T12:30:02;98508.72;;;1.83;73.61
42601;BME280;28229;48.856;9.088;2023-03-04T12:35:34;98508.53;;;1.77;73.55
42601;BME280;28229;48.856;9.088;2023-03-04T12:38:24;98503.34;;;1.77;73.33
42601;BME280;28229;48.856;9.088;2023-03-04T12:54:42;98488.72;;;1.76;72.75
42601;BME280;28229;48.856;9.088;2023-03-04T12:57:16;98483.41;;;1.77;72.91
42601;BME280;28229;48.856;9.088;2023-03-04T13:00:16;98487.91;;;1.75;72.11
42601;BME280;28229;48.856;9.088;2023-03-04T13:10:38;98474.44;;;1.89;71.51
42601;BME280;28229;48.856;9.088;2023-03-04T13:13:04;98476.75;;;1.93;71.42
42601;BME280;28229;48.856;9.088;2023-03-04T13:15:35;98474.16;;;1.93;70.97
42601;BME280;28229;48.856;9.088;2023-03-04T13:18:03;98476.22;;;1.89;71.25
42601;BME280;28229;48.856;9.088;2023-03-04T13:20:41;98474.81;;;1.95;71.34
42601;BME280;28229;48.856;9.088;2023-03-04T13:43:27;98465.50;;;2.10;70.74
42601;BME280;28229;48.856;9.088;2023-03-04T13:53:53;98464.56;;;1.93;71.35
42601;BME280;28229;48.856;9.088;2023-03-04T13:56:20;98463.59;;;1.94;71.63
42601;BME280;28229;48.856;9.088;2023-03-04T13:58:50;98467.59;;;1.88;71.92
42601;BME280;28229;48.856;9.088;2023-03-04T14:01:29;98467.97;;;1.94;71.67
42601;BME280;28229;48.856;9.088;2023-03-04T14:04:01;98466.34;;;1.93;72.20
42601;BME280;28229;48.856;9.088;2023-03-04T14:06:40;98461.16;;;1.93;71.27
42601;BME280;28229;48.856;9.088;2023-03-04T14:09:30;98468.78;;;1.94;71.54
42601;BME280;28229;48.856;9.088;2023-03-04T14:11:59;98466.56;;;1.99;71.26
42601;BME280;28229;48.856;9.088;2023-03-04T14:14:31;98453.22;;;1.94;71.48
42601;BME280;28229;48.856;9.088;2023-03-04T14:17:02;98455.97;;;1.93;71.46
42601;BME280;28229;48.856;9.088;2023-03-04T14:19:32;98453.81;;;1.88;71.43
42601;BME280;28229;48.856;9.088;2023-03-04T14:22:19;98452.31;;;1.85;71.88
42601;BME280;28229;48.856;9.088;2023-03-04T14:24:59;98441.28;;;1.83;72.30
42601;BME280;28229;48.856;9.088;2023-03-04T14:27:28;98447.06;;;1.77;72.18
42601;BME280;28229;48.856;9.088;2023-03-04T14:29:59;98451.47;;;1.77;73.11
42601;BME280;28229;48.856;9.088;2023-03-04T14:32:27;98446.78;;;1.80;72.36
42601;BME280;28229;48.856;9.088;2023-03-04T14:35:03;98443.88;;;1.83;72.62
42601;BME280;28229;48.856;9.088;2023-03-04T14:37:48;98442.53;;;1.79;72.58
42601;BME280;28229;48.856;9.088;2023-03-04T14:40:23;98435.50;;;1.89;73.24
42601;BME280;28229;48.856;9.088;2023-03-04T14:42:57;98437.13;;;1.90;72.22
42601;BME280;28229;48.856;9.088;2023-03-04T14:45:24;98439.19;;;1.87;72.43
42601;BME280;28229;48.856;9.088;2023-03-04T14:47:52;98440.31;;;1.84;72.76
42601;BME280;28229;48.856;9.088;2023-03-04T14:50:21;98437.34;;;1.79;72.70